Time;durP1;ratioP1;P1;durP2;ratioP2;P2;SDS_P1;SDS_P2;PMS_P1;PMS_P2;Temp;Humidity;BMP_temperature;BMP_pressure;BME280_temperature;BME280_humidity;BME280_pressure;Samples;Min_cycle;Max_cycle;Signal;HPM_P1;HPM_P2
2023/07/10 00:00:51;;;;;;;;;;;;;;;;;;5049358;28;19982;-66
2023/07/10 00:03:17;;;;;;;;;;;;;;;;;;5048183;28;20275;-66
2023/07/10 00:05:43;;;;;;;;;;;;;;;;;;5050395;28;19954;-66
2023/07/10 00:08:09;;;;;;;;;;;;;;;;;;5051384;28;19927;-67
2023/07/10 00:10:35;;;;;;;;;;;;;;;;;;5041659;28;19929;-66
2023/07/10 00:13:01;;;;;;;;;;;;;;;;;;5049365;28;19925;-65
2023/07/10 00:15:27;;;;;;;;;;;;;;;;;;5048414;28;19971;-66
2023/07/10 00:17:53;;;;;;;;;;;;;;;;;;5051998;28;21640;-65
2023/07/10 00:20:19;;;;;;;;;;;;;;;;;;5051996;28;20342;-65
2023/07/10 00:22:45;;;;;;;;;;;;;;;;;;5050637;28;19932;-65
2023/07/10 00:25:11;;;;;;;;;;;;;;;;;;5051149;28;20373;-65
2023/07/10 00:27:36;;;;;;;;;;;;;;;;;;5045408;28;19924;-65
2023/07/10 00:30:02;;;;;;;;;;;;;;;;;;5049560;28;19970;-66
2023/07/10 00:32:28;;;;;;;;;;;;;;;;;;5050423;28;20309;-66
2023/07/10 00:34:54;;;;;;;;;;;;;;;;;;5050409;28;19924;-65
2023/07/10 00:37:21;;;;;;;;;;;;;;;;;;5050295;28;19932;-65
2023/07/10 00:39:47;;;;;;;;;;;;;;;;;;5050854;28;19924;-65
2023/07/10 00:42:12;;;;;;;;;;;;;;;;;;5051457;28;19974;-66
2023/07/10 00:44:38;;;;;;;;;;;;;;;;;;5049626;28;19924;-66
2023/07/10 00:47:04;;;;;;;;;;;;;;;;;;5046137;28;20046;-66
2023/07/10 00:49:30;;;;;;;;;;;;;;;;;;5049933;28;19960;-66
2023/07/10 00:51:56;;;;;;;;;;;;;;;;;;5049125;28;20258;-67
2023/07/10 00:54:22;;;;;;;;;;;;;;;;;;5052259;28;20388;-66
2023/07/10 00:56:48;;;;;;;;;;;;;;;;;;5052287;28;19920;-65
2023/07/10 00:59:14;;;;;;;;;;;;;;;;;;5050551;28;19931;-65
2023/07/10 01:01:40;;;;;;;;;;;;;;;;;;5049382;28;20346;-65
2023/07/10 01:04:06;;;;;;;;;;;;;;;;;;5050547;28;19927;-66
2023/07/10 01:06:32;;;;;;;;;;;;;;;;;;5039029;28;19924;-66
2023/07/10 01:08:59;;;;;;;;;;;;;;;;;;5028812;28;19945;-67
2023/07/10 01:11:25;;;;;;;;;;;;;;;;;;5047152;28;19947;-65
2023/07/10 01:13:51;;;;;;;;;;;;;;;;;;5049926;28;20609;-65
2023/07/10 01:16:17;;;;;;;;;;;;;;;;;;5050426;28;19924;-65
2023/07/10 01:18:43;;;;;;;;;;;;;;;;;;5050261;28;19928;-65
2023/07/10 01:21:09;;;;;;;;;;;;;;;;;;5051500;28;20366;-65
2023/07/10 01:23:34;;;;;;;;;;;;;;;;;;5048361;28;19979;-65
2023/07/10 01:26:00;;;;;;;;;;;;;;;;;;5048728;28;19960;-65
2023/07/10 01:28:26;;;;;;;;;;;;;;;;;;5043659;28;19995;-66
2023/07/10 01:30:52;;;;;;;;;;;;;;;;;;5037365;28;19982;-65
2023/07/10 01:33:18;;;;;;;;;;;;;;;;;;5048553;28;19924;-66
2023/07/10 01:35:44;;;;;;;;;;;;;;;;;;5043923;28;19925;-65
2023/07/10 01:38:10;;;;;;;;;;;;;;;;;;5040518;28;19940;-65
2023/07/10 01:40:36;;;;;;;;;;;;;;;;;;5047504;28;20281;-66
2023/07/10 01:43:02;;;;;;;;;;;;;;;;;;5050363;28;20071;-66
2023/07/10 01:45:27;;;;;;;;;;;;;;;;;;5051190;28;19929;-66
2023/07/10 01:47:53;;;;;;;;;;;;;;;;;;5054001;28;19921;-65
2023/07/10 01:50:19;;;;;;;;;;;;;;;;;;5051605;28;19932;-65
2023/07/10 01:52:45;;;;;;;;;;;;;;;;;;5051210;28;19971;-66
2023/07/10 01:55:11;;;;;;;;;;;;;;;;;;5052962;28;19928;-66
2023/07/10 01:57:37;;;;;;;;;;;;;;;;;;5053255;28;19925;-65
2023/07/10 02:00:03;;;;;;;;;;;;;;;;;;5051617;28;19928;-65
2023/07/10 02:02:29;;;;;;;;;;;;;;;;;;5067395;28;20043;-65
2023/07/10 02:04:55;;;;;;;;;;;;;;;;;;5051392;28;20003;-65
2023/07/10 02:07:21;;;;;;;;;;;;;;;;;;5053922;28;19920;-65
2023/07/10 02:09:47;;;;;;;;;;;;;;;;;;5033834;28;19928;-65
2023/07/10 02:12:12;;;;;;;;;;;;;;;;;;5052147;28;20428;-65
2023/07/10 02:14:38;;;;;;;;;;;;;;;;;;5053340;28;19950;-65
2023/07/10 02:17:04;;;;;;;;;;;;;;;;;;5046938;28;20051;-66
2023/07/10 02:19:30;;;;;;;;;;;;;;;;;;5052128;28;20389;-66
2023/07/10 02:21:56;;;;;;;;;;;;;;;;;;5049526;28;19925;-66
2023/07/10 02:24:22;;;;;;;;;;;;;;;;;;5051697;28;19947;-66
2023/07/10 02:26:48;;;;;;;;;;;;;;;;;;5051418;28;19979;-66
2023/07/10 02:29:14;;;;;;;;;;;;;;;;;;5047291;28;19921;-65
2023/07/10 02:31:40;;;;;;;;;;;;;;;;;;5050055;28;19925;-65
2023/07/10 02:34:05;;;;;;;;;;;;;;;;;;5052242;28;19925;-66
2023/07/10 02:36:31;;;;;;;;;;;;;;;;;;5050324;28;19955;-66
2023/07/10 02:38:57;;;;;;;;;;;;;;;;;;5051372;28;19925;-66
2023/07/10 02:41:23;;;;;;;;;;;;;;;;;;5050048;28;20011;-66
2023/07/10 02:43:49;;;;;;;;;;;;;;;;;;5033217;28;19925;-65
2023/07/10 02:46:15;;;;;;;;;;;;;;;;;;5051588;28;19927;-66
2023/07/10 02:48:41;;;;;;;;;;;;;;;;;;5052753;28;19928;-66
2023/07/10 02:51:07;;;;;;;;;;;;;;;;;;5052060;28;19933;-65
2023/07/10 02:53:33;;;;;;;;;;;;;;;;;;5052788;28;20617;-65
2023/07/10 02:55:59;;;;;;;;;;;;;;;;;;5054262;28;19983;-66
2023/07/10 02:58:25;;;;;;;;;;;;;;;;;;5054076;28;19921;-66
2023/07/10 03:00:51;;;;;;;;;;;;;;;;;;5052608;28;19925;-66
2023/07/10 03:03:17;;;;;;;;;;;;;;;;;;5054267;28;19925;-66
2023/07/10 03:05:42;;;;;;;;;;;;;;;;;;5052825;28;20377;-66
2023/07/10 03:08:08;;;;;;;;;;;;;;;;;;5054214;28;19920;-66
2023/07/10 03:10:34;;;;;;;;;;;;;;;;;;5053753;28;20744;-66
2023/07/10 03:13:00;;;;;;;;;;;;;;;;;;5052811;28;19925;-66
2023/07/10 03:15:26;;;;;;;;;;;;;;;;;;5054192;28;19944;-66
2023/07/10 03:17:52;;;;;;;;;;;;;;;;;;5052609;28;19921;-66
2023/07/10 03:20:18;;;;;;;;;;;;;;;;;;5053504;28;19931;-66
2023/07/10 03:22:44;;;;;;;;;;;;;;;;;;5052583;28;19924;-66
2023/07/10 03:25:10;;;;;;;;;;;;;;;;;;5049644;28;19960;-66
2023/07/10 03:27:35;;;;;;;;;;;;;;;;;;5053511;28;20380;-65
2023/07/10 03:30:01;;;;;;;;;;;;;;;;;;5052698;28;19925;-65
2023/07/10 03:32:27;;;;;;;;;;;;;;;;;;5050871;28;19936;-65
2023/07/10 03:34:55;;;;;;;;;;;;;;;;;;5052028;28;19921;-66
2023/07/10 03:37:21;;;;;;;;;;;;;;;;;;5051692;28;19929;-66
2023/07/10 03:39:47;;;;;;;;;;;;;;;;;;5053059;28;20411;-65
2023/07/10 03:42:13;;;;;;;;;;;;;;;;;;5050922;28;19920;-66
2023/07/10 03:44:39;;;;;;;;;;;;;;;;;;5049862;28;20608;-66
2023/07/10 03:47:04;;;;;;;;;;;;;;;;;;5051973;28;19932;-66
2023/07/10 03:49:30;;;;;;;;;;;;;;;;;;5052554;28;19921;-66
2023/07/10 03:51:56;;;;;;;;;;;;;;;;;;5051329;28;19928;-66
2023/07/10 03:54:22;;;;;;;;;;;;;;;;;;5052265;28;20003;-65
2023/07/10 03:56:48;;;;;;;;;;;;;;;;;;5051761;28;19968;-65
2023/07/10 03:59:14;;;;;;;;;;;;;;;;;;5051697;28;19921;-65
2023/07/10 04:01:42;;;;;;;;;;;;;;;;;;5047555;28;19964;-66
2023/07/10 04:04:08;;;;;;;;;;;;;;;;;;5050205;28;20059;-66
2023/07/10 04:06:34;;;;;;;;;;;;;;;;;;5051312;28;20008;-66
2023/07/10 04:09:00;;;;;;;;;;;;;;;;;;5050053;28;19924;-66
2023/07/10 04:11:26;;;;;;;;;;;;;;;;;;5048226;28;19925;-66
2023/07/10 04:13:51;;;;;;;;;;;;;;;;;;5050331;28;20527;-67
2023/07/10 04:16:17;;;;;;;;;;;;;;;;;;5047492;28;19932;-67
2023/07/10 04:18:43;;;;;;;;;;;;;;;;;;5049203;28;19924;-65
2023/07/10 04:21:09;;;;;;;;;;;;;;;;;;5050608;28;19921;-65
2023/07/10 04:23:35;;;;;;;;;;;;;;;;;;5050763;28;19925;-66
2023/07/10 04:26:01;;;;;;;;;;;;;;;;;;5049488;28;20382;-65
2023/07/10 04:28:27;;;;;;;;;;;;;;;;;;5033615;28;19931;-66
2023/07/10 04:30:54;;;;;;;;;;;;;;;;;;5048933;28;19925;-66
2023/07/10 04:33:19;;;;;;;;;;;;;;;;;;5051455;28;20011;-66
2023/07/10 04:35:45;;;;;;;;;;;;;;;;;;5047229;28;20398;-67
2023/07/10 04:38:11;;;;;;;;;;;;;;;;;;5049665;28;19925;-66
2023/07/10 04:40:37;;;;;;;;;;;;;;;;;;5048667;28;19952;-66
2023/07/10 04:43:03;;;;;;;;;;;;;;;;;;5050114;28;19921;-66
2023/07/10 04:45:29;;;;;;;;;;;;;;;;;;5050586;28;19925;-66
2023/07/10 04:47:56;;;;;;;;;;;;;;;;;;5048964;28;19991;-65
2023/07/10 04:50:22;;;;;;;;;;;;;;;;;;5050312;28;19925;-66
2023/07/10 04:52:47;;;;;;;;;;;;;;;;;;5047672;28;19982;-66
2023/07/10 04:55:13;;;;;;;;;;;;;;;;;;5050365;28;19929;-66
2023/07/10 04:57:39;;;;;;;;;;;;;;;;;;5047711;28;19928;-66
2023/07/10 05:00:05;;;;;;;;;;;;;;;;;;5047649;28;19927;-67
2023/07/10 05:02:31;;;;;;;;;;;;;;;;;;5048497;28;19967;-65
2023/07/10 05:04:57;;;;;;;;;;;;;;;;;;5050948;28;19924;-66
2023/07/10 05:07:23;;;;;;;;;;;;;;;;;;5051332;28;19966;-66
2023/07/10 05:09:49;;;;;;;;;;;;;;;;;;5047922;28;20370;-65
2023/07/10 05:12:14;;;;;;;;;;;;;;;;;;5050779;28;19932;-66
2023/07/10 05:14:40;;;;;;;;;;;;;;;;;;5051096;28;20366;-65
2023/07/10 05:17:06;;;;;;;;;;;;;;;;;;5032481;28;19966;-65
2023/07/10 05:19:32;;;;;;;;;;;;;;;;;;5050514;28;19943;-65
2023/07/10 05:21:58;;;;;;;;;;;;;;;;;;5049509;28;19925;-65
2023/07/10 05:24:24;;;;;;;;;;;;;;;;;;5046790;28;19940;-64
2023/07/10 05:26:50;;;;;;;;;;;;;;;;;;5048324;28;19921;-65
2023/07/10 05:29:16;;;;;;;;;;;;;;;;;;5048038;28;20042;-65
2023/07/10 05:31:42;;;;;;;;;;;;;;;;;;5047658;28;20528;-65
2023/07/10 05:34:08;;;;;;;;;;;;;;;;;;5047259;28;19928;-65
2023/07/10 05:36:34;;;;;;;;;;;;;;;;;;5069926;22;19925;-65
2023/07/10 05:38:59;;;;;;;;;;;;;;;;;;5064292;28;19921;-65
2023/07/10 05:41:25;;;;;;;;;;;;;;;;;;5068266;28;19924;-65
2023/07/10 05:43:51;;;;;;;;;;;;;;;;;;5069944;28;19933;-67
2023/07/10 05:46:18;;;;;;;;;;;;;;;;;;5068777;28;19938;-65
2023/07/10 05:48:44;;;;;;;;;;;;;;;;;;5064537;28;19931;-65
2023/07/10 05:51:10;;;;;;;;;;;;;;;;;;5069392;28;20019;-65
2023/07/10 05:53:36;;;;;;;;;;;;;;;;;;5065413;28;20087;-65
2023/07/10 05:56:02;;;;;;;;;;;;;;;;;;5066237;28;19929;-65
2023/07/10 05:58:27;;;;;;;;;;;;;;;;;;5066735;28;20382;-65
2023/07/10 06:00:54;;;;;;;;;;;;;;;;;;5067595;28;19951;-65
2023/07/10 06:03:19;;;;;;;;;;;;;;;;;;5070384;28;19986;-65
2023/07/10 06:05:45;;;;;;;;;;;;;;;;;;5069021;28;19960;-65
2023/07/10 06:08:11;;;;;;;;;;;;;;;;;;5068256;28;19931;-65
2023/07/10 06:10:37;;;;;;;;;;;;;;;;;;5067927;28;20384;-65
2023/07/10 06:13:03;;;;;;;;;;;;;;;;;;5067694;28;19925;-65
2023/07/10 06:15:29;;;;;;;;;;;;;;;;;;5067569;28;20010;-65
2023/07/10 06:17:55;;;;;;;;;;;;;;;;;;5067036;28;19924;-65
2023/07/10 06:20:21;;;;;;;;;;;;;;;;;;5065646;28;19928;-65
2023/07/10 06:22:47;;;;;;;;;;;;;;;;;;5061793;28;19921;-65
2023/07/10 06:25:13;;;;;;;;;;;;;;;;;;5067622;28;19929;-65
2023/07/10 06:27:39;;;;;;;;;;;;;;;;;;5064255;28;19932;-65
2023/07/10 06:30:05;;;;;;;;;;;;;;;;;;5071643;28;20015;-66
2023/07/10 06:32:34;;;;;;;;;;;;;;;;;;5074459;28;20465;-65
2023/07/10 06:35:00;;;;;;;;;;;;;;;;;;5072039;28;20251;-65
2023/07/10 06:37:25;;;;;;;;;;;;;;;;;;5073482;28;19981;-65
2023/07/10 06:39:51;;;;;;;;;;;;;;;;;;5073749;28;19924;-65
2023/07/10 06:42:17;;;;;;;;;;;;;;;;;;5071597;28;19928;-66
2023/07/10 06:44:43;;;;;;;;;;;;;;;;;;5066191;28;19931;-65
2023/07/10 06:47:09;;;;;;;;;;;;;;;;;;5050880;28;20270;-65
2023/07/10 06:49:35;;;;;;;;;;;;;;;;;;5073588;28;19927;-65
2023/07/10 06:52:01;;;;;;;;;;;;;;;;;;5071836;28;19928;-65
2023/07/10 06:54:27;;;;;;;;;;;;;;;;;;5068049;28;20596;-65
2023/07/10 06:56:53;;;;;;;;;;;;;;;;;;5066657;28;20361;-65
2023/07/10 06:59:21;;;;;;;;;;;;;;;;;;5066584;28;20000;-65
2023/07/10 07:01:47;;;;;;;;;;;;;;;;;;5063705;28;19929;-65
2023/07/10 07:04:13;;;;;;;;;;;;;;;;;;5066014;28;19958;-65
2023/07/10 07:06:39;;;;;;;;;;;;;;;;;;5067743;28;20271;-64
2023/07/10 07:09:05;;;;;;;;;;;;;;;;;;5070443;28;19931;-61
2023/07/10 07:11:30;;;;;;;;;;;;;;;;;;5079774;28;19924;-61
2023/07/10 07:13:56;;;;;;;;;;;;;;;;;;5069875;28;19924;-61
2023/07/10 07:16:22;;;;;;;;;;;;;;;;;;5067807;28;19928;-61
2023/07/10 07:18:50;;;;;;;;;;;;;;;;;;5068653;28;19936;-61
2023/07/10 07:21:16;;;;;;;;;;;;;;;;;;5067749;28;19927;-61
2023/07/10 07:23:41;;;;;;;;;;;;;;;;;;5066359;28;20411;-61
2023/07/10 07:26:07;;;;;;;;;;;;;;;;;;5069151;28;20005;-60
2023/07/10 07:28:33;;;;;;;;;;;;;;;;;;5064778;28;19927;-61
2023/07/10 07:30:59;;;;;;;;;;;;;;;;;;5062476;28;19963;-61
2023/07/10 07:33:25;;;;;;;;;;;;;;;;;;5063814;28;19930;-61
2023/07/10 07:35:51;;;;;;;;;;;;;;;;;;5067536;28;19920;-60
2023/07/10 07:38:17;;;;;;;;;;;;;;;;;;5065782;28;19931;-60
2023/07/10 07:40:43;;;;;;;;;;;;;;;;;;5067074;28;19920;-60
2023/07/10 07:43:09;;;;;;;;;;;;;;;;;;5066112;28;19946;-60
2023/07/10 07:45:35;;;;;;;;;;;;;;;;;;5070501;28;19928;-60
2023/07/10 07:48:01;;;;;;;;;;;;;;;;;;5083167;28;20289;-60
2023/07/10 07:50:26;;;;;;;;;;;;;;;;;;5072598;28;19932;-60
2023/07/10 07:52:53;;;;;;;;;;;;;;;;;;5066292;28;19924;-60
2023/07/10 07:55:19;;;;;;;;;;;;;;;;;;5069917;28;19960;-60
2023/07/10 07:57:45;;;;;;;;;;;;;;;;;;5067815;28;19972;-61
2023/07/10 08:00:11;;;;;;;;;;;;;;;;;;5072812;28;19928;-61
2023/07/10 08:02:37;;;;;;;;;;;;;;;;;;5072136;28;19920;-60
2023/07/10 08:05:03;;;;;;;;;;;;;;;;;;5072293;28;19955;-62
2023/07/10 08:07:29;;;;;;;;;;;;;;;;;;5068112;28;20553;-62
2023/07/10 08:09:55;;;;;;;;;;;;;;;;;;5063573;28;20374;-60
2023/07/10 08:12:20;;;;;;;;;;;;;;;;;;5066887;28;19928;-60
2023/07/10 08:14:48;;;;;;;;;;;;;;;;;;5068558;28;19920;-60
2023/07/10 08:17:14;;;;;;;;;;;;;;;;;;5068291;28;19920;-61
2023/07/10 08:19:40;;;;;;;;;;;;;;;;;;5071409;28;19935;-60
2023/07/10 08:22:06;;;;;;;;;;;;;;;;;;5070835;28;19920;-60
2023/07/10 08:24:32;;;;;;;;;;;;;;;;;;5068073;28;19948;-60
2023/07/10 08:26:58;;;;;;;;;;;;;;;;;;5064249;28;20374;-60
2023/07/10 08:29:24;;;;;;;;;;;;;;;;;;5059270;28;19955;-60
2023/07/10 08:31:50;;;;;;;;;;;;;;;;;;5068765;28;20404;-60
2023/07/10 08:34:16;;;;;;;;;;;;;;;;;;5067215;28;19928;-61
2023/07/10 08:36:42;;;;;;;;;;;;;;;;;;5070654;28;20534;-62
2023/07/10 08:39:08;;;;;;;;;;;;;;;;;;5063383;28;20004;-61
2023/07/10 08:41:36;;;;;;;;;;;;;;;;;;5050305;28;20011;-60
2023/07/10 08:44:06;;;;;;;;;;;;;;;;;;5052357;28;20367;-60
2023/07/10 08:46:32;;;;;;;;;;;;;;;;;;5052487;28;19928;-60
2023/07/10 08:48:58;;;;;;;;;;;;;;;;;;5052403;28;19941;-60
2023/07/10 08:51:23;;;;;;;;;;;;;;;;;;5052129;28;19933;-61
2023/07/10 08:53:49;;;;;;;;;;;;;;;;;;5052293;28;19921;-60
2023/07/10 08:56:18;;;;;;;;;;;;;;;;;;5052029;28;19920;-60
2023/07/10 08:58:44;;;;;;;;;;;;;;;;;;5052104;28;20042;-60
2023/07/10 09:01:10;;;;;;;;;;;;;;;;;;5051607;28;19963;-61
2023/07/10 09:03:36;;;;;;;;;;;;;;;;;;5051364;28;19920;-60
2023/07/10 09:06:04;;;;;;;;;;;;;;;;;;5051635;28;20008;-60
2023/07/10 09:08:30;;;;;;;;;;;;;;;;;;5051217;28;20002;-60
2023/07/10 09:10:57;;;;;;;;;;;;;;;;;;5051199;28;19980;-60
2023/07/10 09:13:32;;;;;;;;;;;;;;;;;;5051670;28;19994;-60
2023/07/10 09:15:59;;;;;;;;;;;;;;;;;;5052123;28;20374;-60
2023/07/10 09:18:25;;;;;;;;;;;;;;;;;;5051908;28;19925;-60
2023/07/10 09:20:52;;;;;;;;;;;;;;;;;;5051956;28;19966;-60
2023/07/10 09:23:18;;;;;;;;;;;;;;;;;;5050462;28;19928;-60
2023/07/10 09:25:44;;;;;;;;;;;;;;;;;;5050473;28;19921;-61
2023/07/10 09:28:09;;;;;;;;;;;;;;;;;;5051610;28;19978;-60
2023/07/10 09:30:36;;;;;;;;;;;;;;;;;;5051515;28;19933;-61
2023/07/10 09:33:02;;;;;;;;;;;;;;;;;;5051596;28;19921;-60
2023/07/10 09:35:28;;;;;;;;;;;;;;;;;;5051869;28;19982;-60
2023/07/10 09:37:53;;;;;;;;;;;;;;;;;;5051355;28;20569;-60
2023/07/10 09:40:19;;;;;;;;;;;;;;;;;;5050178;28;19924;-60
2023/07/10 09:42:50;;;;;;;;;;;;;;;;;;5051575;28;20424;-60
2023/07/10 09:45:18;;;;;;;;;;;;;;;;;;5051710;28;19932;-60
2023/07/10 09:47:50;;;;;;;;;;;;;;;;;;5051290;28;20450;-60
2023/07/10 09:50:17;;;;;;;;;;;;;;;;;;5050087;28;19929;-60
2023/07/10 09:52:43;;;;;;;;;;;;;;;;;;5050146;28;19920;-60
2023/07/10 09:55:09;;;;;;;;;;;;;;;;;;5051429;28;19925;-60
2023/07/10 09:57:35;;;;;;;;;;;;;;;;;;5051317;28;19921;-60
2023/07/10 10:00:03;;;;;;;;;;;;;;;;;;5051428;28;19928;-60
2023/07/10 10:02:29;;;;;;;;;;;;;;;;;;5051828;28;20408;-61
2023/07/10 10:04:55;;;;;;;;;;;;;;;;;;5055318;28;20282;-60
2023/07/10 10:07:22;;;;;;;;;;;;;;;;;;5055295;28;19932;-61
2023/07/10 10:09:48;;;;;;;;;;;;;;;;;;5061123;28;19931;-61
2023/07/10 10:12:14;;;;;;;;;;;;;;;;;;5075335;28;20577;-60
2023/07/10 10:14:40;;;;;;;;;;;;;;;;;;5073956;28;20318;-61
2023/07/10 10:17:07;;;;;;;;;;;;;;;;;;5075096;28;19928;-61
2023/07/10 10:19:33;;;;;;;;;;;;;;;;;;5073149;28;19924;-61
2023/07/10 10:21:59;;;;;;;;;;;;;;;;;;5075000;28;19920;-61
2023/07/10 10:24:25;;;;;;;;;;;;;;;;;;5073485;28;19924;-60
2023/07/10 10:26:53;;;;;;;;;;;;;;;;;;5075113;28;19924;-61
2023/07/10 10:29:21;;;;;;;;;;;;;;;;;;5073984;28;20289;-61
2023/07/10 10:31:46;;;;;;;;;;;;;;;;;;5073383;28;19924;-60
2023/07/10 10:34:12;;;;;;;;;;;;;;;;;;5074699;28;19954;-61
2023/07/10 10:36:39;;;;;;;;;;;;;;;;;;5074667;28;19974;-61
2023/07/10 10:39:05;;;;;;;;;;;;;;;;;;5074739;28;19924;-60
2023/07/10 10:41:32;;;;;;;;;;;;;;;;;;5074741;28;19924;-61
2023/07/10 10:44:01;;;;;;;;;;;;;;;;;;5074586;28;19921;-60
2023/07/10 10:46:27;;;;;;;;;;;;;;;;;;5074601;28;19947;-61
2023/07/10 10:48:53;;;;;;;;;;;;;;;;;;5074019;28;20382;-61
2023/07/10 10:51:19;;;;;;;;;;;;;;;;;;5073615;28;20358;-61
2023/07/10 10:53:46;;;;;;;;;;;;;;;;;;5073950;28;19927;-61
2023/07/10 10:56:11;;;;;;;;;;;;;;;;;;5073774;28;19924;-61
2023/07/10 10:58:38;;;;;;;;;;;;;;;;;;5073626;28;20400;-61
2023/07/10 11:01:04;;;;;;;;;;;;;;;;;;5073559;28;19921;-61
2023/07/10 11:03:29;;;;;;;;;;;;;;;;;;5073730;28;19925;-61
2023/07/10 11:05:55;;;;;;;;;;;;;;;;;;5073789;28;19920;-60
2023/07/10 11:08:24;;;;;;;;;;;;;;;;;;5073336;28;19925;-61
2023/07/10 11:10:50;;;;;;;;;;;;;;;;;;5073359;28;19957;-61
2023/07/10 11:13:15;;;;;;;;;;;;;;;;;;5073133;28;20377;-61
2023/07/10 11:15:41;;;;;;;;;;;;;;;;;;5071957;28;19934;-61
2023/07/10 11:18:07;;;;;;;;;;;;;;;;;;5071703;28;19920;-61
2023/07/10 11:20:33;;;;;;;;;;;;;;;;;;5072929;28;19921;-61
2023/07/10 11:23:01;;;;;;;;;;;;;;;;;;5073144;28;19924;-61
2023/07/10 11:25:30;;;;;;;;;;;;;;;;;;5072858;28;20397;-60
2023/07/10 11:27:56;;;;;;;;;;;;;;;;;;5073072;28;19924;-61
2023/07/10 11:30:22;;;;;;;;;;;;;;;;;;5072736;28;20424;-61
2023/07/10 11:32:48;;;;;;;;;;;;;;;;;;5073573;28;19924;-61
2023/07/10 11:35:13;;;;;;;;;;;;;;;;;;5073759;28;20283;-61
2023/07/10 11:37:40;;;;;;;;;;;;;;;;;;5073783;28;19928;-60
2023/07/10 11:40:06;;;;;;;;;;;;;;;;;;5072289;28;19935;-60
2023/07/10 11:42:32;;;;;;;;;;;;;;;;;;5073502;28;20448;-60
2023/07/10 11:44:59;;;;;;;;;;;;;;;;;;5073428;28;20393;-61
2023/07/10 11:47:26;;;;;;;;;;;;;;;;;;5073411;28;20440;-61
2023/07/10 11:49:54;;;;;;;;;;;;;;;;;;5073511;28;19931;-61
2023/07/10 11:52:21;;;;;;;;;;;;;;;;;;5072050;28;19924;-61
2023/07/10 11:54:47;;;;;;;;;;;;;;;;;;5073332;28;19921;-61
2023/07/10 11:57:14;;;;;;;;;;;;;;;;;;5073433;28;19924;-61
2023/07/10 11:59:40;;;;;;;;;;;;;;;;;;5073212;28;20003;-61
2023/07/10 12:02:06;;;;;;;;;;;;;;;;;;5073233;28;20023;-60
2023/07/10 12:04:32;;;;;;;;;;;;;;;;;;5073025;28;20416;-61
2023/07/10 12:06:58;;;;;;;;;;;;;;;;;;5072802;28;19932;-60
2023/07/10 12:09:25;;;;;;;;;;;;;;;;;;5072962;28;20392;-60
2023/07/10 12:11:51;;;;;;;;;;;;;;;;;;5072761;28;19925;-61
2023/07/10 12:14:18;;;;;;;;;;;;;;;;;;5072885;28;19928;-61
2023/07/10 12:16:44;;;;;;;;;;;;;;;;;;5072855;28;19927;-61
2023/07/10 12:19:10;;;;;;;;;;;;;;;;;;5072965;28;19921;-61
2023/07/10 12:21:36;;;;;;;;;;;;;;;;;;5072836;28;20283;-60
2023/07/10 12:24:02;;;;;;;;;;;;;;;;;;5072890;28;19931;-61
2023/07/10 12:26:28;;;;;;;;;;;;;;;;;;5072170;28;19924;-60
2023/07/10 12:28:54;;;;;;;;;;;;;;;;;;5072748;28;19927;-61
2023/07/10 12:31:20;;;;;;;;;;;;;;;;;;5072343;28;19929;-61
2023/07/10 12:33:46;;;;;;;;;;;;;;;;;;5072720;28;19974;-61
2023/07/10 12:36:12;;;;;;;;;;;;;;;;;;5072204;28;20524;-61
2023/07/10 12:38:38;;;;;;;;;;;;;;;;;;5071116;28;19925;-61
2023/07/10 12:41:04;;;;;;;;;;;;;;;;;;5072397;28;20370;-61
2023/07/10 12:43:30;;;;;;;;;;;;;;;;;;5072382;28;19920;-61
2023/07/10 12:45:55;;;;;;;;;;;;;;;;;;5072121;28;19927;-61
2023/07/10 12:48:21;;;;;;;;;;;;;;;;;;5072455;28;19920;-61
2023/07/10 12:50:47;;;;;;;;;;;;;;;;;;5072357;28;20401;-61
2023/07/10 12:53:13;;;;;;;;;;;;;;;;;;5072381;28;19925;-61
2023/07/10 12:55:39;;;;;;;;;;;;;;;;;;5072009;28;20346;-61
2023/07/10 12:58:07;;;;;;;;;;;;;;;;;;5071678;28;19974;-60
2023/07/10 13:00:32;;;;;;;;;;;;;;;;;;5071644;28;20319;-61
2023/07/10 13:02:58;;;;;;;;;;;;;;;;;;5071983;28;20018;-61
2023/07/10 13:05:24;;;;;;;;;;;;;;;;;;5071608;28;19924;-61
2023/07/10 13:07:51;;;;;;;;;;;;;;;;;;5071693;28;20297;-61
2023/07/10 13:10:16;;;;;;;;;;;;;;;;;;5071796;28;20574;-61
2023/07/10 13:12:42;;;;;;;;;;;;;;;;;;5070649;28;20031;-61
2023/07/10 13:15:08;;;;;;;;;;;;;;;;;;5071927;28;19935;-61
2023/07/10 13:17:34;;;;;;;;;;;;;;;;;;5071891;28;19947;-61
2023/07/10 13:20:00;;;;;;;;;;;;;;;;;;5071921;28;19921;-61
2023/07/10 13:22:26;;;;;;;;;;;;;;;;;;5071602;28;19932;-61
2023/07/10 13:24:52;;;;;;;;;;;;;;;;;;5071954;28;19924;-61
2023/07/10 13:27:18;;;;;;;;;;;;;;;;;;5071592;28;20293;-61
2023/07/10 13:29:44;;;;;;;;;;;;;;;;;;5071740;28;19920;-60
2023/07/10 13:32:10;;;;;;;;;;;;;;;;;;5071782;28;20012;-61
2023/07/10 13:34:35;;;;;;;;;;;;;;;;;;5071745;28;19924;-61
2023/07/10 13:37:02;;;;;;;;;;;;;;;;;;5070373;28;20382;-61
2023/07/10 13:39:28;;;;;;;;;;;;;;;;;;5070727;28;19982;-60
2023/07/10 13:41:53;;;;;;;;;;;;;;;;;;5069909;28;19939;-60
2023/07/10 13:44:19;;;;;;;;;;;;;;;;;;5053470;28;19925;-61
2023/07/10 13:46:45;;;;;;;;;;;;;;;;;;5070886;28;19927;-61
2023/07/10 13:49:11;;;;;;;;;;;;;;;;;;5069268;28;20441;-61
2023/07/10 13:51:38;;;;;;;;;;;;;;;;;;5069124;28;19928;-61
2023/07/10 13:54:04;;;;;;;;;;;;;;;;;;5070583;28;20362;-60
2023/07/10 13:56:30;;;;;;;;;;;;;;;;;;5070338;28;19974;-61
2023/07/10 13:58:56;;;;;;;;;;;;;;;;;;5070610;28;19924;-61
2023/07/10 14:01:22;;;;;;;;;;;;;;;;;;5070639;28;19931;-61
2023/07/10 14:03:48;;;;;;;;;;;;;;;;;;5070576;28;19994;-61
2023/07/10 14:06:14;;;;;;;;;;;;;;;;;;5066069;28;20370;-61
2023/07/10 14:08:40;;;;;;;;;;;;;;;;;;5051412;28;19931;-61
2023/07/10 14:11:06;;;;;;;;;;;;;;;;;;5051330;28;19925;-61
2023/07/10 14:13:32;;;;;;;;;;;;;;;;;;5051154;28;19940;-61
2023/07/10 14:15:58;;;;;;;;;;;;;;;;;;5051483;28;20730;-61
2023/07/10 14:18:23;;;;;;;;;;;;;;;;;;5051204;28;19963;-60
2023/07/10 14:20:49;;;;;;;;;;;;;;;;;;5051365;28;20003;-61
2023/07/10 14:23:15;;;;;;;;;;;;;;;;;;5051273;28;19921;-61
2023/07/10 14:25:41;;;;;;;;;;;;;;;;;;5051226;28;19939;-60
2023/07/10 14:28:07;;;;;;;;;;;;;;;;;;5051094;28;20378;-61
2023/07/10 14:30:33;;;;;;;;;;;;;;;;;;5051069;28;19933;-61
2023/07/10 14:32:59;;;;;;;;;;;;;;;;;;5051111;28;19927;-61
2023/07/10 14:35:25;;;;;;;;;;;;;;;;;;5051073;28;19960;-61
2023/07/10 14:37:51;;;;;;;;;;;;;;;;;;5049606;28;19935;-61
2023/07/10 14:40:20;;;;;;;;;;;;;;;;;;5051150;28;19921;-61
2023/07/10 14:42:46;;;;;;;;;;;;;;;;;;5055934;28;19926;-61
2023/07/10 14:45:11;;;;;;;;;;;;;;;;;;5071115;28;19921;-61
2023/07/10 14:47:37;;;;;;;;;;;;;;;;;;5070923;28;19924;-61
2023/07/10 14:50:04;;;;;;;;;;;;;;;;;;5073710;28;20046;-60
2023/07/10 14:52:29;;;;;;;;;;;;;;;;;;5074561;28;19920;-61
2023/07/10 14:54:55;;;;;;;;;;;;;;;;;;5074254;28;19931;-60
2023/07/10 14:57:21;;;;;;;;;;;;;;;;;;5074231;28;20445;-61
2023/07/10 14:59:48;;;;;;;;;;;;;;;;;;5074344;28;19936;-61
2023/07/10 15:02:13;;;;;;;;;;;;;;;;;;5074541;28;19921;-61
2023/07/10 15:04:39;;;;;;;;;;;;;;;;;;5074147;28;19946;-61
2023/07/10 15:07:05;;;;;;;;;;;;;;;;;;5074181;28;19966;-60
2023/07/10 15:09:31;;;;;;;;;;;;;;;;;;5073900;28;20030;-60
2023/07/10 15:11:57;;;;;;;;;;;;;;;;;;5074171;28;19924;-60
2023/07/10 15:14:23;;;;;;;;;;;;;;;;;;5072703;28;19925;-61
2023/07/10 15:16:49;;;;;;;;;;;;;;;;;;5074267;28;19924;-60
2023/07/10 15:19:15;;;;;;;;;;;;;;;;;;5074066;28;19935;-61
2023/07/10 15:21:41;;;;;;;;;;;;;;;;;;5072617;28;20364;-61
2023/07/10 15:24:06;;;;;;;;;;;;;;;;;;5073873;28;19925;-60
2023/07/10 15:26:32;;;;;;;;;;;;;;;;;;5073886;28;19943;-61
2023/07/10 15:29:03;;;;;;;;;;;;;;;;;;5073849;28;19924;-60
2023/07/10 15:31:28;;;;;;;;;;;;;;;;;;5072452;28;19938;-61
2023/07/10 15:33:54;;;;;;;;;;;;;;;;;;5073752;28;20003;-61
2023/07/10 15:36:21;;;;;;;;;;;;;;;;;;5073517;28;19924;-60
2023/07/10 15:38:47;;;;;;;;;;;;;;;;;;5073654;28;19928;-61
2023/07/10 15:41:13;;;;;;;;;;;;;;;;;;5072299;28;19943;-61
2023/07/10 15:43:40;;;;;;;;;;;;;;;;;;5073553;28;19924;-61
2023/07/10 15:46:06;;;;;;;;;;;;;;;;;;5073770;28;19924;-61
2023/07/10 15:48:32;;;;;;;;;;;;;;;;;;5073360;28;19920;-61
2023/07/10 15:50:57;;;;;;;;;;;;;;;;;;5073469;28;19946;-61
2023/07/10 15:53:23;;;;;;;;;;;;;;;;;;5073280;28;20436;-60
2023/07/10 15:55:49;;;;;;;;;;;;;;;;;;5073472;28;19925;-61
2023/07/10 15:58:15;;;;;;;;;;;;;;;;;;5073436;28;19920;-61
2023/07/10 16:00:42;;;;;;;;;;;;;;;;;;5054406;28;20401;-60
2023/07/10 16:03:08;;;;;;;;;;;;;;;;;;5073301;28;19930;-60
2023/07/10 16:05:34;;;;;;;;;;;;;;;;;;5073158;28;19920;-61
2023/07/10 16:07:59;;;;;;;;;;;;;;;;;;5073021;28;20292;-61
2023/07/10 16:10:25;;;;;;;;;;;;;;;;;;5073082;28;19974;-61
2023/07/10 16:12:51;;;;;;;;;;;;;;;;;;5071810;28;19925;-61
2023/07/10 16:15:17;;;;;;;;;;;;;;;;;;5072936;28;19926;-60
2023/07/10 16:17:44;;;;;;;;;;;;;;;;;;5072989;28;19920;-60
2023/07/10 16:20:10;;;;;;;;;;;;;;;;;;5072736;28;19931;-60
2023/07/10 16:22:36;;;;;;;;;;;;;;;;;;5072688;28;19924;-60
2023/07/10 16:25:02;;;;;;;;;;;;;;;;;;5072865;28;19924;-60
2023/07/10 16:27:28;;;;;;;;;;;;;;;;;;5071441;28;19928;-60
2023/07/10 16:29:54;;;;;;;;;;;;;;;;;;5072714;28;19927;-60
2023/07/10 16:32:20;;;;;;;;;;;;;;;;;;5071217;28;19925;-60
2023/07/10 16:34:46;;;;;;;;;;;;;;;;;;5072509;28;19936;-60
2023/07/10 16:37:13;;;;;;;;;;;;;;;;;;5072274;28;19929;-60